Terminal Aerodrome Forecast
Issued by NWS

Home | Current Version | Previous Version | Graphics & Text | Print | Product List | Glossary On
Versions: 1 2 3 4 5 6 7 8 9 10
789
FTUS43 KMPX 231720
TAFRNH
TAF
KRNH 231720Z 2318/2418 08006KT P6SM SCT200
     FM240100 10007KT P6SM SCT150 BKN200
     FM240800 14009KT P6SM BKN150
     FM241500 16012G20KT P6SM BKN150=

USA.gov is the U.S. government's official web portal to all federal, state and local government web resources and services.